Yankee Lake, Ohio
Current Conditions -  °F | °C
As of 2:51 PM on Monday 22 Dec 2014 (Local Time) from KYNG Reporting Station
Broken Clouds Broken Clouds  
Wind Chill: 34°   Ceiling: 25000
Heat Index: 40°   Visibility: 10mi
Dew Point: 29°   Wind: 8mph
Humidity: 65%   Direction: 120°ESE
Pressure: 29.99"   Gusts: NA
Location:  41.2384°N, 80.5799°W
Report Text: KYNG 221951Z 12007KT 10SM BKN250 04/M02 A2999 RMK AO2 SLP167 T00441017
Loading
Personal Weather Stations






























Interactive Weather Map New forecast layout! Learn more

10-Day Weather Forecast

Advertisements
Track Severe Weather on mobile